sensor_id;sensor_type;location;lat;lon;timestamp;pressure;altitude;pressure_sealevel;temperature;humidity
23616;BME280;11985;49.404;7.734;2023-03-25T00:02:45;96530.19;;;6.21;100.00
23616;BME280;11985;49.404;7.734;2023-03-25T00:07:48;96536.00;;;6.17;100.00
23616;BME280;11985;49.404;7.734;2023-03-25T00:12:50;96542.63;;;6.13;100.00
23616;BME280;11985;49.404;7.734;2023-03-25T00:17:53;96546.66;;;6.15;100.00
23616;BME280;11985;49.404;7.734;2023-03-25T00:22:54;96528.97;;;6.17;100.00
23616;BME280;11985;49.404;7.734;2023-03-25T00:27:56;96519.56;;;6.29;100.00
23616;BME280;11985;49.404;7.734;2023-03-25T00:32:59;96514.53;;;6.34;100.00
23616;BME280;11985;49.404;7.734;2023-03-25T00:38:00;96526.00;;;6.33;100.00
23616;BME280;11985;49.404;7.734;2023-03-25T00:43:03;96528.22;;;6.37;100.00
23616;BME280;11985;49.404;7.734;2023-03-25T00:48:06;96530.81;;;6.23;100.00
23616;BME280;11985;49.404;7.734;2023-03-25T00:53:08;96540.97;;;6.05;100.00
23616;BME280;11985;49.404;7.734;2023-03-25T00:58:09;96545.19;;;5.71;100.00
23616;BME280;11985;49.404;7.734;2023-03-25T01:03:12;96547.47;;;5.46;100.00
23616;BME280;11985;49.404;7.734;2023-03-25T01:08:14;96571.44;;;5.28;100.00
23616;BME280;11985;49.404;7.734;2023-03-25T01:13:16;96573.69;;;5.10;100.00
23616;BME280;11985;49.404;7.734;2023-03-25T01:18:19;96568.88;;;4.86;100.00
23616;BME280;11985;49.404;7.734;2023-03-25T01:23:21;96534.09;;;4.79;100.00
23616;BME280;11985;49.404;7.734;2023-03-25T01:28:22;96546.13;;;4.80;100.00
23616;BME280;11985;49.404;7.734;2023-03-25T01:33:25;96538.06;;;4.74;100.00
23616;BME280;11985;49.404;7.734;2023-03-25T01:38:28;96536.19;;;4.68;100.00
23616;BME280;11985;49.404;7.734;2023-03-25T01:43:30;96526.75;;;4.67;100.00
23616;BME280;11985;49.404;7.734;2023-03-25T01:48:35;96529.53;;;4.66;100.00
23616;BME280;11985;49.404;7.734;2023-03-25T01:53:38;96528.06;;;4.57;100.00
23616;BME280;11985;49.404;7.734;2023-03-25T01:58:41;96531.84;;;4.54;100.00
23616;BME280;11985;49.404;7.734;2023-03-25T02:03:44;96527.88;;;4.58;100.00
23616;BME280;11985;49.404;7.734;2023-03-25T02:08:51;96518.69;;;4.62;100.00
23616;BME280;11985;49.404;7.734;2023-03-25T02:13:56;96525.22;;;4.73;100.00
23616;BME280;11985;49.404;7.734;2023-03-25T02:19:20;96516.00;;;4.77;100.00
23616;BME280;11985;49.404;7.734;2023-03-25T02:25:00;96514.44;;;4.83;100.00
23616;BME280;11985;49.404;7.734;2023-03-25T02:30:36;96517.28;;;4.88;100.00
23616;BME280;11985;49.404;7.734;2023-03-25T02:35:49;96515.31;;;4.90;100.00
23616;BME280;11985;49.404;7.734;2023-03-25T02:41:02;96536.34;;;4.88;100.00
23616;BME280;11985;49.404;7.734;2023-03-25T02:46:07;96528.53;;;4.88;100.00
23616;BME280;11985;49.404;7.734;2023-03-25T02:51:15;96515.69;;;4.87;100.00
23616;BME280;11985;49.404;7.734;2023-03-25T02:56:21;96507.66;;;4.88;100.00
23616;BME280;11985;49.404;7.734;2023-03-25T03:01:25;96500.28;;;4.92;100.00
23616;BME280;11985;49.404;7.734;2023-03-25T03:06:27;96492.00;;;4.88;100.00
23616;BME280;11985;49.404;7.734;2023-03-25T03:11:32;96486.38;;;4.85;100.00
23616;BME280;11985;49.404;7.734;2023-03-25T03:16:45;96484.31;;;4.80;100.00
23616;BME280;11985;49.404;7.734;2023-03-25T03:21:53;96497.63;;;4.85;100.00
23616;BME280;11985;49.404;7.734;2023-03-25T03:27:07;96493.00;;;4.87;100.00
23616;BME280;11985;49.404;7.734;2023-03-25T03:32:15;96491.44;;;4.93;100.00
23616;BME280;11985;49.404;7.734;2023-03-25T03:37:23;96499.72;;;4.96;100.00
23616;BME280;11985;49.404;7.734;2023-03-25T03:42:31;96488.28;;;4.97;100.00
23616;BME280;11985;49.404;7.734;2023-03-25T03:47:39;96495.28;;;4.97;100.00
23616;BME280;11985;49.404;7.734;2023-03-25T03:52:45;96493.94;;;5.01;100.00
23616;BME280;11985;49.404;7.734;2023-03-25T03:57:52;96493.97;;;5.08;100.00
23616;BME280;11985;49.404;7.734;2023-03-25T04:03:01;96494.78;;;5.08;100.00
23616;BME280;11985;49.404;7.734;2023-03-25T04:08:11;96499.63;;;5.11;100.00
23616;BME280;11985;49.404;7.734;2023-03-25T04:13:16;96505.81;;;5.10;100.00
23616;BME280;11985;49.404;7.734;2023-03-25T04:18:18;96511.03;;;5.10;100.00
23616;BME280;11985;49.404;7.734;2023-03-25T04:23:22;96524.72;;;5.12;100.00
23616;BME280;11985;49.404;7.734;2023-03-25T04:28:25;96531.50;;;5.07;100.00
23616;BME280;11985;49.404;7.734;2023-03-25T04:33:27;96529.06;;;5.05;100.00
23616;BME280;11985;49.404;7.734;2023-03-25T04:38:31;96533.69;;;5.03;100.00
23616;BME280;11985;49.404;7.734;2023-03-25T04:43:34;96533.88;;;5.01;100.00
23616;BME280;11985;49.404;7.734;2023-03-25T04:48:35;96546.53;;;5.04;100.00
23616;BME280;11985;49.404;7.734;2023-03-25T04:53:41;96542.75;;;5.07;100.00
23616;BME280;11985;49.404;7.734;2023-03-25T04:58:44;96551.00;;;5.11;100.00
23616;BME280;11985;49.404;7.734;2023-03-25T05:03:46;96547.22;;;5.13;100.00
23616;BME280;11985;49.404;7.734;2023-03-25T05:08:49;96542.81;;;5.14;100.00
23616;BME280;11985;49.404;7.734;2023-03-25T05:13:52;96518.34;;;5.21;100.00
23616;BME280;11985;49.404;7.734;2023-03-25T05:18:53;96526.19;;;5.21;100.00
23616;BME280;11985;49.404;7.734;2023-03-25T05:23:55;96523.22;;;5.24;100.00
23616;BME280;11985;49.404;7.734;2023-03-25T05:28:59;96540.47;;;5.25;100.00
23616;BME280;11985;49.404;7.734;2023-03-25T05:34:01;96546.16;;;5.29;100.00
23616;BME280;11985;49.404;7.734;2023-03-25T05:39:05;96558.00;;;5.32;100.00
23616;BME280;11985;49.404;7.734;2023-03-25T05:44:10;96569.53;;;5.44;100.00
23616;BME280;11985;49.404;7.734;2023-03-25T05:49:14;96572.53;;;5.41;100.00
23616;BME280;11985;49.404;7.734;2023-03-25T05:54:16;96576.75;;;5.42;100.00
23616;BME280;11985;49.404;7.734;2023-03-25T05:59:19;96590.44;;;5.44;100.00
23616;BME280;11985;49.404;7.734;2023-03-25T06:04:21;96593.03;;;5.44;100.00
23616;BME280;11985;49.404;7.734;2023-03-25T06:09:22;96591.66;;;5.48;100.00
23616;BME280;11985;49.404;7.734;2023-03-25T06:14:26;96584.88;;;5.53;100.00
23616;BME280;11985;49.404;7.734;2023-03-25T06:19:27;96573.25;;;5.56;100.00
23616;BME280;11985;49.404;7.734;2023-03-25T06:24:29;96566.50;;;5.68;100.00
23616;BME280;11985;49.404;7.734;2023-03-25T06:29:32;96572.97;;;5.72;100.00
23616;BME280;11985;49.404;7.734;2023-03-25T06:34:34;96563.13;;;5.74;100.00
23616;BME280;11985;49.404;7.734;2023-03-25T06:39:35;96561.50;;;5.73;100.00
23616;BME280;11985;49.404;7.734;2023-03-25T06:44:39;96568.94;;;5.76;100.00
23616;BME280;11985;49.404;7.734;2023-03-25T06:49:40;96576.63;;;5.78;100.00
23616;BME280;11985;49.404;7.734;2023-03-25T06:54:42;96567.56;;;5.80;100.00
23616;BME280;11985;49.404;7.734;2023-03-25T06:59:45;96553.72;;;5.87;100.00
23616;BME280;11985;49.404;7.734;2023-03-25T07:04:48;96552.63;;;6.02;100.00
23616;BME280;11985;49.404;7.734;2023-03-25T07:09:51;96543.22;;;6.08;100.00
23616;BME280;11985;49.404;7.734;2023-03-25T07:14:56;96542.88;;;6.24;100.00
23616;BME280;11985;49.404;7.734;2023-03-25T07:19:58;96539.69;;;6.35;100.00
23616;BME280;11985;49.404;7.734;2023-03-25T07:24:59;96551.59;;;6.45;100.00
23616;BME280;11985;49.404;7.734;2023-03-25T07:30:03;96553.22;;;6.52;100.00
23616;BME280;11985;49.404;7.734;2023-03-25T07:35:05;96547.63;;;6.62;100.00
23616;BME280;11985;49.404;7.734;2023-03-25T07:40:09;96550.03;;;6.70;100.00
23616;BME280;11985;49.404;7.734;2023-03-25T07:45:12;96549.22;;;6.76;100.00
23616;BME280;11985;49.404;7.734;2023-03-25T07:50:13;96554.88;;;6.73;100.00
23616;BME280;11985;49.404;7.734;2023-03-25T07:55:15;96548.84;;;6.73;100.00
23616;BME280;11985;49.404;7.734;2023-03-25T08:00:19;96564.56;;;6.86;100.00
23616;BME280;11985;49.404;7.734;2023-03-25T08:05:21;96559.75;;;6.90;100.00
23616;BME280;11985;49.404;7.734;2023-03-25T08:10:22;96569.41;;;6.96;100.00
23616;BME280;11985;49.404;7.734;2023-03-25T08:15:25;96585.50;;;6.86;100.00
23616;BME280;11985;49.404;7.734;2023-03-25T08:20:27;96577.22;;;6.82;100.00
23616;BME280;11985;49.404;7.734;2023-03-25T08:25:29;96567.38;;;6.84;100.00
23616;BME280;11985;49.404;7.734;2023-03-25T08:30:32;96579.47;;;6.92;100.00
23616;BME280;11985;49.404;7.734;2023-03-25T08:35:37;96577.88;;;6.98;100.00
23616;BME280;11985;49.404;7.734;2023-03-25T08:40:41;96570.44;;;7.01;100.00
23616;BME280;11985;49.404;7.734;2023-03-25T08:45:44;96581.50;;;7.10;100.00
23616;BME280;11985;49.404;7.734;2023-03-25T08:50:46;96569.03;;;7.12;100.00
23616;BME280;11985;49.404;7.734;2023-03-25T08:55:50;96567.41;;;7.18;100.00
23616;BME280;11985;49.404;7.734;2023-03-25T09:00:54;96569.44;;;7.35;100.00
23616;BME280;11985;49.404;7.734;2023-03-25T09:05:56;96558.34;;;7.47;100.00
23616;BME280;11985;49.404;7.734;2023-03-25T09:10:57;96575.84;;;7.59;100.00
23616;BME280;11985;49.404;7.734;2023-03-25T09:16:00;96571.19;;;7.81;100.00
23616;BME280;11985;49.404;7.734;2023-03-25T09:21:03;96566.94;;;7.80;100.00
23616;BME280;11985;49.404;7.734;2023-03-25T09:26:05;96571.78;;;7.77;100.00
23616;BME280;11985;49.404;7.734;2023-03-25T09:31:08;96575.84;;;7.79;100.00
23616;BME280;11985;49.404;7.734;2023-03-25T09:36:10;96574.81;;;7.80;100.00
23616;BME280;11985;49.404;7.734;2023-03-25T09:41:30;96579.84;;;7.88;100.00
23616;BME280;11985;49.404;7.734;2023-03-25T09:46:37;96568.44;;;8.21;100.00
23616;BME280;11985;49.404;7.734;2023-03-25T09:51:41;96565.94;;;8.53;100.00
23616;BME280;11985;49.404;7.734;2023-03-25T09:56:43;96564.59;;;8.37;100.00
23616;BME280;11985;49.404;7.734;2023-03-25T10:01:52;96567.00;;;8.38;100.00
23616;BME280;11985;49.404;7.734;2023-03-25T10:07:03;96562.53;;;8.32;100.00
23616;BME280;11985;49.404;7.734;2023-03-25T10:12:23;96579.38;;;8.18;100.00
23616;BME280;11985;49.404;7.734;2023-03-25T10:17:34;96580.63;;;7.96;100.00
23616;BME280;11985;49.404;7.734;2023-03-25T10:22:51;96559.94;;;7.61;100.00
23616;BME280;11985;49.404;7.734;2023-03-25T10:27:58;96622.75;;;6.88;100.00
23616;BME280;11985;49.404;7.734;2023-03-25T10:33:05;96621.13;;;6.74;100.00
23616;BME280;11985;49.404;7.734;2023-03-25T10:38:14;96617.69;;;6.67;100.00
23616;BME280;11985;49.404;7.734;2023-03-25T10:43:23;96643.22;;;6.71;100.00
23616;BME280;11985;49.404;7.734;2023-03-25T10:48:28;96645.13;;;7.04;100.00
23616;BME280;11985;49.404;7.734;2023-03-25T10:53:31;96660.84;;;7.04;100.00
23616;BME280;11985;49.404;7.734;2023-03-25T10:58:33;96682.06;;;6.61;100.00
23616;BME280;11985;49.404;7.734;2023-03-25T11:03:40;96670.34;;;6.16;100.00
23616;BME280;11985;49.404;7.734;2023-03-25T11:08:55;96661.78;;;6.28;100.00
23616;BME280;11985;49.404;7.734;2023-03-25T11:13:57;96677.47;;;6.76;100.00
23616;BME280;11985;49.404;7.734;2023-03-25T11:19:01;96674.19;;;7.22;100.00
23616;BME280;11985;49.404;7.734;2023-03-25T11:24:05;96668.00;;;7.56;100.00
23616;BME280;11985;49.404;7.734;2023-03-25T11:29:10;96661.72;;;7.90;100.00
23616;BME280;11985;49.404;7.734;2023-03-25T11:34:18;96648.75;;;8.29;100.00
23616;BME280;11985;49.404;7.734;2023-03-25T11:39:28;96667.69;;;8.51;100.00
23616;BME280;11985;49.404;7.734;2023-03-25T11:44:31;96661.63;;;8.57;100.00
23616;BME280;11985;49.404;7.734;2023-03-25T11:49:36;96662.06;;;8.40;100.00
23616;BME280;11985;49.404;7.734;2023-03-25T11:54:40;96658.84;;;8.25;100.00
23616;BME280;11985;49.404;7.734;2023-03-25T11:59:44;96655.19;;;8.26;100.00
23616;BME280;11985;49.404;7.734;2023-03-25T12:04:56;96662.44;;;8.51;100.00
23616;BME280;11985;49.404;7.734;2023-03-25T12:10:03;96661.16;;;8.73;100.00
23616;BME280;11985;49.404;7.734;2023-03-25T12:15:15;96651.59;;;8.85;100.00
23616;BME280;11985;49.404;7.734;2023-03-25T12:20:25;96648.03;;;9.11;100.00
23616;BME280;11985;49.404;7.734;2023-03-25T12:25:44;96641.69;;;9.50;100.00
23616;BME280;11985;49.404;7.734;2023-03-25T12:30:57;96629.28;;;10.26;99.87
23616;BME280;11985;49.404;7.734;2023-03-25T12:36:18;96639.25;;;10.42;93.03
23616;BME280;11985;49.404;7.734;2023-03-25T12:41:27;96636.03;;;10.40;90.03
23616;BME280;11985;49.404;7.734;2023-03-25T12:47:04;96632.72;;;10.63;85.54
23616;BME280;11985;49.404;7.734;2023-03-25T12:52:14;96630.03;;;10.51;79.07
23616;BME280;11985;49.404;7.734;2023-03-25T12:57:31;96617.31;;;10.48;77.03
23616;BME280;11985;49.404;7.734;2023-03-25T13:08:18;96634.38;;;10.02;79.65
23616;BME280;11985;49.404;7.734;2023-03-25T13:13:23;96625.19;;;10.48;77.09
23616;BME280;11985;49.404;7.734;2023-03-25T13:18:30;96610.09;;;11.04;76.56
23616;BME280;11985;49.404;7.734;2023-03-25T13:23:36;96612.00;;;11.27;74.16
23616;BME280;11985;49.404;7.734;2023-03-25T13:28:41;96606.56;;;11.63;72.75
23616;BME280;11985;49.404;7.734;2023-03-25T13:33:51;96609.69;;;11.60;70.32
23616;BME280;11985;49.404;7.734;2023-03-25T13:38:56;96605.53;;;11.64;69.15
23616;BME280;11985;49.404;7.734;2023-03-25T13:44:03;96601.22;;;11.82;66.89
23616;BME280;11985;49.404;7.734;2023-03-25T13:49:12;96605.56;;;11.88;65.84
23616;BME280;11985;49.404;7.734;2023-03-25T13:54:21;96604.84;;;11.57;62.98
23616;BME280;11985;49.404;7.734;2023-03-25T14:05:19;96608.97;;;11.53;62.57
23616;BME280;11985;49.404;7.734;2023-03-25T14:10:38;96596.53;;;11.19;62.18
23616;BME280;11985;49.404;7.734;2023-03-25T14:15:45;96604.28;;;11.14;62.83
23616;BME280;11985;49.404;7.734;2023-03-25T14:20:53;96613.84;;;11.26;62.50
23616;BME280;11985;49.404;7.734;2023-03-25T14:25:57;96602.38;;;11.32;62.56
23616;BME280;11985;49.404;7.734;2023-03-25T14:31:08;96598.75;;;11.33;61.94
23616;BME280;11985;49.404;7.734;2023-03-25T14:36:10;96594.28;;;11.34;60.92
23616;BME280;11985;49.404;7.734;2023-03-25T14:41:14;96589.50;;;11.78;58.68
23616;BME280;11985;49.404;7.734;2023-03-25T14:46:19;96596.81;;;11.52;56.52
23616;BME280;11985;49.404;7.734;2023-03-25T14:51:45;96597.59;;;11.29;56.76
23616;BME280;11985;49.404;7.734;2023-03-25T14:56:55;96589.53;;;11.24;57.15
23616;BME280;11985;49.404;7.734;2023-03-25T15:02:03;96597.97;;;11.03;57.45
23616;BME280;11985;49.404;7.734;2023-03-25T15:07:08;96589.13;;;10.97;59.17
23616;BME280;11985;49.404;7.734;2023-03-25T15:12:14;96592.06;;;11.31;58.99
23616;BME280;11985;49.404;7.734;2023-03-25T15:17:45;96599.38;;;11.05;59.83
23616;BME280;11985;49.404;7.734;2023-03-25T15:23:20;96592.84;;;11.20;60.95
23616;BME280;11985;49.404;7.734;2023-03-25T15:28:40;96587.63;;;11.43;61.50
23616;BME280;11985;49.404;7.734;2023-03-25T15:33:55;96582.34;;;11.43;60.71
23616;BME280;11985;49.404;7.734;2023-03-25T15:39:23;96601.53;;;11.08;59.95
23616;BME280;11985;49.404;7.734;2023-03-25T15:44:59;96577.19;;;10.83;59.64
23616;BME280;11985;49.404;7.734;2023-03-25T15:50:22;96586.50;;;10.97;60.06
23616;BME280;11985;49.404;7.734;2023-03-25T15:55:29;96596.56;;;10.89;60.95
23616;BME280;11985;49.404;7.734;2023-03-25T16:00:36;96593.66;;;11.20;61.16
23616;BME280;11985;49.404;7.734;2023-03-25T16:05:45;96584.56;;;11.70;59.54
23616;BME280;11985;49.404;7.734;2023-03-25T16:10:47;96598.09;;;12.08;60.31
23616;BME280;11985;49.404;7.734;2023-03-25T16:15:52;96585.00;;;12.25;58.21
23616;BME280;11985;49.404;7.734;2023-03-25T16:20:59;96592.59;;;11.09;59.61
23616;BME280;11985;49.404;7.734;2023-03-25T16:26:02;96603.09;;;11.40;61.04
23616;BME280;11985;49.404;7.734;2023-03-25T16:31:26;96600.53;;;12.22;61.85
23616;BME280;11985;49.404;7.734;2023-03-25T16:36:31;96597.38;;;11.54;61.96
23616;BME280;11985;49.404;7.734;2023-03-25T16:41:34;96593.72;;;9.98;64.90
23616;BME280;11985;49.404;7.734;2023-03-25T16:46:37;96597.59;;;9.52;66.98
23616;BME280;11985;49.404;7.734;2023-03-25T16:51:39;96617.16;;;9.32;69.98
23616;BME280;11985;49.404;7.734;2023-03-25T16:56:43;96619.44;;;9.21;72.30
23616;BME280;11985;49.404;7.734;2023-03-25T17:01:52;96620.97;;;9.11;74.85
23616;BME280;11985;49.404;7.734;2023-03-25T17:06:56;96633.47;;;9.09;76.30
23616;BME280;11985;49.404;7.734;2023-03-25T17:12:04;96645.81;;;9.08;77.62
23616;BME280;11985;49.404;7.734;2023-03-25T17:17:15;96664.81;;;9.04;79.83
23616;BME280;11985;49.404;7.734;2023-03-25T17:22:25;96699.16;;;8.57;86.50
23616;BME280;11985;49.404;7.734;2023-03-25T17:27:33;96742.34;;;7.49;97.25
23616;BME280;11985;49.404;7.734;2023-03-25T17:32:41;96725.78;;;6.74;100.00
23616;BME280;11985;49.404;7.734;2023-03-25T17:37:46;96733.94;;;6.51;100.00
23616;BME280;11985;49.404;7.734;2023-03-25T17:42:48;96724.16;;;6.31;100.00
23616;BME280;11985;49.404;7.734;2023-03-25T17:47:51;96715.66;;;6.23;100.00
23616;BME280;11985;49.404;7.734;2023-03-25T17:52:53;96725.69;;;6.19;100.00
23616;BME280;11985;49.404;7.734;2023-03-25T17:57:56;96730.31;;;6.17;100.00
23616;BME280;11985;49.404;7.734;2023-03-25T18:02:59;96728.31;;;6.19;100.00
23616;BME280;11985;49.404;7.734;2023-03-25T18:08:00;96722.47;;;6.17;100.00
23616;BME280;11985;49.404;7.734;2023-03-25T18:13:03;96719.59;;;6.12;100.00
23616;BME280;11985;49.404;7.734;2023-03-25T18:18:06;96725.66;;;6.13;100.00
23616;BME280;11985;49.404;7.734;2023-03-25T18:23:08;96733.28;;;6.14;100.00
23616;BME280;11985;49.404;7.734;2023-03-25T18:28:10;96735.13;;;6.20;100.00
23616;BME280;11985;49.404;7.734;2023-03-25T18:33:14;96746.88;;;6.31;100.00
23616;BME280;11985;49.404;7.734;2023-03-25T18:38:17;96742.03;;;6.28;100.00
23616;BME280;11985;49.404;7.734;2023-03-25T18:43:20;96756.28;;;6.25;100.00
23616;BME280;11985;49.404;7.734;2023-03-25T18:48:23;96757.53;;;6.29;100.00
23616;BME280;11985;49.404;7.734;2023-03-25T18:53:26;96761.75;;;6.30;100.00
23616;BME280;11985;49.404;7.734;2023-03-25T18:58:30;96764.78;;;6.27;100.00
23616;BME280;11985;49.404;7.734;2023-03-25T19:03:33;96762.16;;;6.27;100.00
23616;BME280;11985;49.404;7.734;2023-03-25T19:08:41;96779.63;;;6.27;100.00
23616;BME280;11985;49.404;7.734;2023-03-25T19:13:43;96763.53;;;6.23;100.00
23616;BME280;11985;49.404;7.734;2023-03-25T19:18:46;96771.38;;;6.23;100.00
23616;BME280;11985;49.404;7.734;2023-03-25T19:23:48;96769.16;;;6.27;100.00
23616;BME280;11985;49.404;7.734;2023-03-25T19:28:51;96771.63;;;6.28;100.00
23616;BME280;11985;49.404;7.734;2023-03-25T19:33:54;96776.41;;;6.25;100.00
23616;BME280;11985;49.404;7.734;2023-03-25T19:38:55;96778.81;;;6.26;100.00
23616;BME280;11985;49.404;7.734;2023-03-25T19:44:03;96766.75;;;6.25;100.00
23616;BME280;11985;49.404;7.734;2023-03-25T19:49:05;96761.97;;;6.29;100.00
23616;BME280;11985;49.404;7.734;2023-03-25T19:54:07;96765.38;;;6.29;100.00
23616;BME280;11985;49.404;7.734;2023-03-25T19:59:12;96755.13;;;6.28;100.00
23616;BME280;11985;49.404;7.734;2023-03-25T20:04:17;96765.75;;;6.26;100.00
23616;BME280;11985;49.404;7.734;2023-03-25T20:09:19;96763.78;;;6.28;100.00
23616;BME280;11985;49.404;7.734;2023-03-25T20:14:21;96766.31;;;6.22;100.00
23616;BME280;11985;49.404;7.734;2023-03-25T20:19:25;96751.84;;;6.19;100.00
23616;BME280;11985;49.404;7.734;2023-03-25T20:24:26;96754.66;;;6.18;100.00
23616;BME280;11985;49.404;7.734;2023-03-25T20:29:28;96756.00;;;6.14;100.00
23616;BME280;11985;49.404;7.734;2023-03-25T20:34:31;96748.59;;;6.17;100.00
23616;BME280;11985;49.404;7.734;2023-03-25T20:39:33;96768.66;;;6.10;100.00
23616;BME280;11985;49.404;7.734;2023-03-25T20:44:35;96770.22;;;6.04;100.00
23616;BME280;11985;49.404;7.734;2023-03-25T20:49:38;96768.91;;;5.94;100.00
23616;BME280;11985;49.404;7.734;2023-03-25T20:54:39;96767.31;;;5.93;100.00
23616;BME280;11985;49.404;7.734;2023-03-25T20:59:41;96765.22;;;5.88;100.00
23616;BME280;11985;49.404;7.734;2023-03-25T21:04:44;96770.03;;;5.85;100.00
23616;BME280;11985;49.404;7.734;2023-03-25T21:09:46;96771.66;;;5.86;100.00
23616;BME280;11985;49.404;7.734;2023-03-25T21:14:48;96748.28;;;5.77;100.00
23616;BME280;11985;49.404;7.734;2023-03-25T21:19:51;96754.66;;;5.75;100.00
23616;BME280;11985;49.404;7.734;2023-03-25T21:24:53;96748.03;;;5.72;100.00
23616;BME280;11985;49.404;7.734;2023-03-25T21:29:54;96757.84;;;5.70;100.00
23616;BME280;11985;49.404;7.734;2023-03-25T21:34:57;96753.00;;;5.67;100.00
23616;BME280;11985;49.404;7.734;2023-03-25T21:39:59;96750.63;;;5.72;100.00
23616;BME280;11985;49.404;7.734;2023-03-25T21:45:00;96753.50;;;5.77;100.00
23616;BME280;11985;49.404;7.734;2023-03-25T21:50:05;96745.88;;;5.82;100.00
23616;BME280;11985;49.404;7.734;2023-03-25T21:55:08;96739.03;;;5.81;100.00
23616;BME280;11985;49.404;7.734;2023-03-25T22:00:14;96742.78;;;5.72;100.00
23616;BME280;11985;49.404;7.734;2023-03-25T22:05:17;96745.78;;;5.69;100.00
23616;BME280;11985;49.404;7.734;2023-03-25T22:10:19;96742.53;;;5.67;100.00
23616;BME280;11985;49.404;7.734;2023-03-25T22:15:20;96745.53;;;5.64;100.00
23616;BME280;11985;49.404;7.734;2023-03-25T22:20:23;96754.81;;;5.67;100.00
23616;BME280;11985;49.404;7.734;2023-03-25T22:25:25;96754.22;;;5.71;100.00
23616;BME280;11985;49.404;7.734;2023-03-25T22:30:26;96742.03;;;5.78;100.00
23616;BME280;11985;49.404;7.734;2023-03-25T22:35:29;96745.41;;;5.72;100.00
23616;BME280;11985;49.404;7.734;2023-03-25T22:40:32;96743.16;;;5.69;100.00
23616;BME280;11985;49.404;7.734;2023-03-25T22:45:34;96761.88;;;5.73;100.00
23616;BME280;11985;49.404;7.734;2023-03-25T22:50:37;96761.13;;;5.79;100.00
23616;BME280;11985;49.404;7.734;2023-03-25T22:55:38;96765.16;;;5.81;100.00
23616;BME280;11985;49.404;7.734;2023-03-25T23:00:40;96754.97;;;5.87;100.00
23616;BME280;11985;49.404;7.734;2023-03-25T23:05:54;96759.66;;;5.91;100.00
23616;BME280;11985;49.404;7.734;2023-03-25T23:10:57;96757.22;;;5.90;100.00
23616;BME280;11985;49.404;7.734;2023-03-25T23:16:00;96761.00;;;5.87;100.00
23616;BME280;11985;49.404;7.734;2023-03-25T23:21:04;96761.19;;;5.86;100.00
23616;BME280;11985;49.404;7.734;2023-03-25T23:26:07;96763.56;;;5.80;100.00
23616;BME280;11985;49.404;7.734;2023-03-25T23:31:15;96757.84;;;5.70;100.00
23616;BME280;11985;49.404;7.734;2023-03-25T23:36:19;96754.97;;;5.65;100.00
23616;BME280;11985;49.404;7.734;2023-03-25T23:41:21;96754.09;;;5.58;100.00
23616;BME280;11985;49.404;7.734;2023-03-25T23:46:25;96750.63;;;5.51;100.00
23616;BME280;11985;49.404;7.734;2023-03-25T23:51:29;96754.97;;;5.44;100.00
23616;BME280;11985;49.404;7.734;2023-03-25T23:56:32;96748.59;;;5.32;100.00
